sensor_id;sensor_type;location;lat;lon;timestamp;pressure;altitude;pressure_sealevel;temperature;humidity
1480;BME280;732;51.698;4.886;2023-04-22T00:00:51;100962.72;;;3.61;78.96
1480;BME280;732;51.698;4.886;2023-04-22T00:03:20;100960.03;;;3.51;78.91
1480;BME280;732;51.698;4.886;2023-04-22T00:05:57;100965.25;;;3.53;78.73
1480;BME280;732;51.698;4.886;2023-04-22T00:08:25;100959.47;;;3.48;78.74
1480;BME280;732;51.698;4.886;2023-04-22T00:10:55;100964.91;;;3.46;78.63
1480;BME280;732;51.698;4.886;2023-04-22T00:13:29;100967.00;;;3.42;78.78
1480;BME280;732;51.698;4.886;2023-04-22T00:15:57;100954.69;;;3.32;78.65
1480;BME280;732;51.698;4.886;2023-04-22T00:18:25;100972.72;;;3.38;78.42
1480;BME280;732;51.698;4.886;2023-04-22T00:20:53;100958.16;;;3.32;77.97
1480;BME280;732;51.698;4.886;2023-04-22T00:23:22;100965.81;;;3.25;78.41
1480;BME280;732;51.698;4.886;2023-04-22T00:25:52;100968.97;;;3.19;78.91
1480;BME280;732;51.698;4.886;2023-04-22T00:28:22;100939.91;;;3.08;78.36
1480;BME280;732;51.698;4.886;2023-04-22T00:30:50;100950.50;;;3.08;78.33
1480;BME280;732;51.698;4.886;2023-04-22T00:33:21;100921.22;;;2.88;78.70
1480;BME280;732;51.698;4.886;2023-04-22T00:35:49;100961.94;;;3.08;78.62
1480;BME280;732;51.698;4.886;2023-04-22T00:38:17;100949.78;;;3.06;78.60
1480;BME280;732;51.698;4.886;2023-04-22T00:40:48;100963.03;;;3.06;78.32
1480;BME280;732;51.698;4.886;2023-04-22T00:43:17;100966.94;;;3.02;78.27
1480;BME280;732;51.698;4.886;2023-04-22T00:45:49;100955.69;;;2.88;78.59
1480;BME280;732;51.698;4.886;2023-04-22T00:48:23;100948.09;;;2.62;79.01
1480;BME280;732;51.698;4.886;2023-04-22T00:50:54;100972.41;;;2.68;79.83
1480;BME280;732;51.698;4.886;2023-04-22T00:53:25;100977.31;;;2.72;79.51
1480;BME280;732;51.698;4.886;2023-04-22T00:55:57;100977.31;;;2.72;79.74
1480;BME280;732;51.698;4.886;2023-04-22T00:58:28;100957.34;;;2.47;79.53
1480;BME280;732;51.698;4.886;2023-04-22T01:00:58;100974.47;;;2.64;79.62
1480;BME280;732;51.698;4.886;2023-04-22T01:03:26;100960.16;;;2.55;78.94
1480;BME280;732;51.698;4.886;2023-04-22T01:06:01;100983.00;;;2.68;78.52
1480;BME280;732;51.698;4.886;2023-04-22T01:08:29;100947.94;;;2.43;79.16
1480;BME280;732;51.698;4.886;2023-04-22T01:10:58;100970.06;;;2.53;79.52
1480;BME280;732;51.698;4.886;2023-04-22T01:13:26;100966.41;;;2.66;79.94
1480;BME280;732;51.698;4.886;2023-04-22T01:16:02;100970.19;;;2.73;79.93
1480;BME280;732;51.698;4.886;2023-04-22T01:18:32;100958.31;;;2.67;79.67
1480;BME280;732;51.698;4.886;2023-04-22T01:21:03;100925.22;;;2.61;79.75
1480;BME280;732;51.698;4.886;2023-04-22T01:23:34;100964.72;;;2.86;79.74
1480;BME280;732;51.698;4.886;2023-04-22T01:26:02;100961.69;;;2.90;79.25
1480;BME280;732;51.698;4.886;2023-04-22T01:28:30;100958.41;;;2.98;79.03
1480;BME280;732;51.698;4.886;2023-04-22T01:31:02;100957.53;;;2.97;79.10
1480;BME280;732;51.698;4.886;2023-04-22T01:33:30;100967.69;;;2.92;79.19
1480;BME280;732;51.698;4.886;2023-04-22T01:35:59;100949.13;;;2.92;78.85
1480;BME280;732;51.698;4.886;2023-04-22T01:38:28;100961.16;;;2.96;79.11
1480;BME280;732;51.698;4.886;2023-04-22T01:41:04;100957.94;;;2.93;79.37
1480;BME280;732;51.698;4.886;2023-04-22T01:43:35;100963.25;;;2.93;79.43
1480;BME280;732;51.698;4.886;2023-04-22T01:46:07;100965.63;;;2.96;79.31
1480;BME280;732;51.698;4.886;2023-04-22T01:48:38;100904.03;;;2.61;79.39
1480;BME280;732;51.698;4.886;2023-04-22T01:51:12;100960.19;;;2.97;79.44
1480;BME280;732;51.698;4.886;2023-04-22T01:53:45;100954.38;;;3.04;78.74
1480;BME280;732;51.698;4.886;2023-04-22T01:56:20;100936.75;;;2.93;78.57
1480;BME280;732;51.698;4.886;2023-04-22T01:58:50;100955.09;;;3.06;79.03
1480;BME280;732;51.698;4.886;2023-04-22T02:01:18;100922.47;;;2.84;79.07
1480;BME280;732;51.698;4.886;2023-04-22T02:03:51;100965.88;;;3.14;78.80
1480;BME280;732;51.698;4.886;2023-04-22T02:06:22;100962.97;;;3.17;78.74
1480;BME280;732;51.698;4.886;2023-04-22T02:08:57;100968.03;;;3.20;78.56
1480;BME280;732;51.698;4.886;2023-04-22T02:11:35;100966.44;;;3.18;79.12
1480;BME280;732;51.698;4.886;2023-04-22T02:14:16;100962.81;;;3.19;79.08
1480;BME280;732;51.698;4.886;2023-04-22T02:16:48;100959.88;;;3.12;79.32
1480;BME280;732;51.698;4.886;2023-04-22T02:19:22;100924.25;;;3.05;79.15
1480;BME280;732;51.698;4.886;2023-04-22T02:21:51;100933.50;;;3.10;79.03
1480;BME280;732;51.698;4.886;2023-04-22T02:24:26;100953.00;;;3.31;79.16
1480;BME280;732;51.698;4.886;2023-04-22T02:27:01;100947.00;;;3.38;78.93
1480;BME280;732;51.698;4.886;2023-04-22T02:29:32;100952.75;;;3.43;78.57
1480;BME280;732;51.698;4.886;2023-04-22T02:32:00;100918.09;;;3.25;78.55
1480;BME280;732;51.698;4.886;2023-04-22T02:34:31;100901.72;;;3.20;78.44
1480;BME280;732;51.698;4.886;2023-04-22T02:37:08;100942.59;;;3.49;78.52
1480;BME280;732;51.698;4.886;2023-04-22T02:39:46;100946.09;;;3.49;78.39
1480;BME280;732;51.698;4.886;2023-04-22T02:42:18;100939.63;;;3.42;78.66
1480;BME280;732;51.698;4.886;2023-04-22T02:44:50;100918.22;;;3.34;78.85
1480;BME280;732;51.698;4.886;2023-04-22T02:47:19;100919.47;;;3.29;79.00
1480;BME280;732;51.698;4.886;2023-04-22T02:49:54;100893.31;;;3.15;79.42
1480;BME280;732;51.698;4.886;2023-04-22T02:52:31;100927.63;;;3.48;79.00
1480;BME280;732;51.698;4.886;2023-04-22T02:55:02;100922.06;;;3.51;78.97
1480;BME280;732;51.698;4.886;2023-04-22T02:57:32;100925.88;;;3.58;79.00
1480;BME280;732;51.698;4.886;2023-04-22T03:00:15;100911.59;;;3.49;79.08
1480;BME280;732;51.698;4.886;2023-04-22T03:02:56;100901.81;;;3.50;79.33
1480;BME280;732;51.698;4.886;2023-04-22T03:05:28;100914.00;;;3.62;79.07
1480;BME280;732;51.698;4.886;2023-04-22T03:08:11;100910.97;;;3.67;79.14
1480;BME280;732;51.698;4.886;2023-04-22T03:10:42;100915.16;;;3.69;79.15
1480;BME280;732;51.698;4.886;2023-04-22T03:13:17;100911.53;;;3.70;78.99
1480;BME280;732;51.698;4.886;2023-04-22T03:15:50;100908.59;;;3.73;78.70
1480;BME280;732;51.698;4.886;2023-04-22T03:18:27;100897.97;;;3.73;78.32
1480;BME280;732;51.698;4.886;2023-04-22T03:20:58;100897.28;;;3.71;78.46
1480;BME280;732;51.698;4.886;2023-04-22T03:23:31;100894.75;;;3.70;78.45
1480;BME280;732;51.698;4.886;2023-04-22T03:26:04;100865.53;;;3.50;78.58
1480;BME280;732;51.698;4.886;2023-04-22T03:28:34;100896.44;;;3.71;78.83
1480;BME280;732;51.698;4.886;2023-04-22T03:31:11;100890.88;;;3.74;78.98
1480;BME280;732;51.698;4.886;2023-04-22T03:33:47;100897.16;;;3.73;79.33
1480;BME280;732;51.698;4.886;2023-04-22T03:36:28;100857.72;;;3.58;79.00
1480;BME280;732;51.698;4.886;2023-04-22T03:38:56;100890.19;;;3.82;79.33
1480;BME280;732;51.698;4.886;2023-04-22T03:41:27;100854.53;;;3.65;78.99
1480;BME280;732;51.698;4.886;2023-04-22T03:44:02;100848.97;;;3.68;78.90
1480;BME280;732;51.698;4.886;2023-04-22T03:46:36;100871.47;;;3.83;79.15
1480;BME280;732;51.698;4.886;2023-04-22T03:49:22;100871.72;;;3.90;79.00
1480;BME280;732;51.698;4.886;2023-04-22T03:51:54;100870.66;;;3.92;78.87
1480;BME280;732;51.698;4.886;2023-04-22T03:54:26;100864.47;;;3.92;79.03
1480;BME280;732;51.698;4.886;2023-04-22T03:56:56;100838.63;;;3.74;78.77
1480;BME280;732;51.698;4.886;2023-04-22T03:59:35;100858.34;;;3.91;78.90
1480;BME280;732;51.698;4.886;2023-04-22T04:02:04;100855.41;;;3.94;78.70
1480;BME280;732;51.698;4.886;2023-04-22T04:04:46;100856.78;;;3.99;78.92
1480;BME280;732;51.698;4.886;2023-04-22T04:07:23;100857.25;;;4.04;78.46
1480;BME280;732;51.698;4.886;2023-04-22T04:09:58;100854.28;;;4.07;78.58
1480;BME280;732;51.698;4.886;2023-04-22T04:12:31;100850.66;;;4.08;78.39
1480;BME280;732;51.698;4.886;2023-04-22T04:15:21;100840.59;;;4.02;78.63
1480;BME280;732;51.698;4.886;2023-04-22T04:17:53;100840.31;;;4.05;78.40
1480;BME280;732;51.698;4.886;2023-04-22T04:20:26;100810.56;;;3.91;78.12
1480;BME280;732;51.698;4.886;2023-04-22T04:23:01;100828.44;;;4.09;78.17
1480;BME280;732;51.698;4.886;2023-04-22T04:25:34;100804.97;;;3.94;78.19
1480;BME280;732;51.698;4.886;2023-04-22T04:28:18;100826.63;;;4.09;78.08
1480;BME280;732;51.698;4.886;2023-04-22T04:31:06;100807.47;;;3.96;78.21
1480;BME280;732;51.698;4.886;2023-04-22T04:33:49;100809.31;;;3.96;78.36
1480;BME280;732;51.698;4.886;2023-04-22T04:36:19;100833.03;;;4.07;78.23
1480;BME280;732;51.698;4.886;2023-04-22T04:39:04;100799.94;;;3.91;78.33
1480;BME280;732;51.698;4.886;2023-04-22T04:41:43;100834.44;;;4.11;78.18
1480;BME280;732;51.698;4.886;2023-04-22T04:44:14;100829.56;;;4.16;78.28
1480;BME280;732;51.698;4.886;2023-04-22T04:46:44;100823.25;;;4.17;77.90
1480;BME280;732;51.698;4.886;2023-04-22T04:49:13;100834.59;;;4.19;78.17
1480;BME280;732;51.698;4.886;2023-04-22T04:51:50;100819.63;;;4.08;78.01
1480;BME280;732;51.698;4.886;2023-04-22T04:54:20;100837.66;;;4.24;77.99
1480;BME280;732;51.698;4.886;2023-04-22T04:56:48;100834.72;;;4.28;78.24
1480;BME280;732;51.698;4.886;2023-04-22T04:59:18;100836.25;;;4.30;78.05
1480;BME280;732;51.698;4.886;2023-04-22T05:01:57;100836.66;;;4.35;78.31
1480;BME280;732;51.698;4.886;2023-04-22T05:04:33;100810.13;;;4.25;78.25
1480;BME280;732;51.698;4.886;2023-04-22T05:07:03;100804.66;;;4.27;78.01
1480;BME280;732;51.698;4.886;2023-04-22T05:09:38;100837.78;;;4.52;78.06
1480;BME280;732;51.698;4.886;2023-04-22T05:12:10;100838.31;;;4.56;77.93
1480;BME280;732;51.698;4.886;2023-04-22T05:14:39;100831.06;;;4.58;78.13
1480;BME280;732;51.698;4.886;2023-04-22T05:17:19;100845.03;;;4.60;78.18
1480;BME280;732;51.698;4.886;2023-04-22T05:19:51;100821.84;;;4.52;78.46
1480;BME280;732;51.698;4.886;2023-04-22T05:22:20;100838.28;;;4.66;78.29
1480;BME280;732;51.698;4.886;2023-04-22T05:24:52;100842.19;;;4.81;78.60
1480;BME280;732;51.698;4.886;2023-04-22T05:27:39;100841.63;;;4.87;78.26
1480;BME280;732;51.698;4.886;2023-04-22T05:30:18;100839.50;;;4.91;78.67
1480;BME280;732;51.698;4.886;2023-04-22T05:32:49;100851.63;;;5.03;78.56
1480;BME280;732;51.698;4.886;2023-04-22T05:35:25;100856.34;;;5.10;78.21
1480;BME280;732;51.698;4.886;2023-04-22T05:37:59;100855.09;;;5.14;78.09
1480;BME280;732;51.698;4.886;2023-04-22T05:40:30;100853.34;;;5.22;78.34
1480;BME280;732;51.698;4.886;2023-04-22T05:43:03;100845.63;;;5.29;78.38
1480;BME280;732;51.698;4.886;2023-04-22T05:45:39;100821.44;;;5.22;78.93
1480;BME280;732;51.698;4.886;2023-04-22T05:48:12;100836.59;;;5.40;78.71
1480;BME280;732;51.698;4.886;2023-04-22T05:50:53;100845.84;;;5.64;79.33
1480;BME280;732;51.698;4.886;2023-04-22T05:53:27;100839.59;;;5.73;79.35
1480;BME280;732;51.698;4.886;2023-04-22T05:56:00;100842.28;;;5.91;79.73
1480;BME280;732;51.698;4.886;2023-04-22T05:58:28;100846.00;;;6.16;79.48
1480;BME280;732;51.698;4.886;2023-04-22T06:01:11;100836.09;;;6.27;79.06
1480;BME280;732;51.698;4.886;2023-04-22T06:04:12;100835.09;;;6.46;78.54
1480;BME280;732;51.698;4.886;2023-04-22T06:06:43;100831.28;;;6.48;78.44
1480;BME280;732;51.698;4.886;2023-04-22T06:09:14;100817.97;;;6.48;78.52
1480;BME280;732;51.698;4.886;2023-04-22T06:11:52;100834.59;;;6.68;78.28
1480;BME280;732;51.698;4.886;2023-04-22T06:14:28;100823.97;;;6.77;78.15
1480;BME280;732;51.698;4.886;2023-04-22T06:16:56;100822.66;;;6.81;78.08
1480;BME280;732;51.698;4.886;2023-04-22T06:19:26;100823.69;;;6.88;78.13
1480;BME280;732;51.698;4.886;2023-04-22T06:22:04;100813.56;;;7.00;77.70
1480;BME280;732;51.698;4.886;2023-04-22T06:24:37;100804.63;;;7.09;77.89
1480;BME280;732;51.698;4.886;2023-04-22T06:27:16;100804.31;;;7.21;77.87
1480;BME280;732;51.698;4.886;2023-04-22T06:29:47;100806.19;;;7.28;77.83
1480;BME280;732;51.698;4.886;2023-04-22T06:32:25;100810.72;;;7.44;78.03
1480;BME280;732;51.698;4.886;2023-04-22T06:34:55;100815.41;;;7.59;77.79
1480;BME280;732;51.698;4.886;2023-04-22T06:37:30;100801.59;;;7.72;77.49
1480;BME280;732;51.698;4.886;2023-04-22T06:40:12;100796.63;;;7.85;77.48
1480;BME280;732;51.698;4.886;2023-04-22T06:43:22;100796.16;;;7.98;77.28
1480;BME280;732;51.698;4.886;2023-04-22T06:46:18;100803.66;;;8.11;77.11
1480;BME280;732;51.698;4.886;2023-04-22T06:48:54;100787.28;;;8.22;76.89
1480;BME280;732;51.698;4.886;2023-04-22T06:51:40;100781.09;;;8.30;76.88
1480;BME280;732;51.698;4.886;2023-04-22T06:54:11;100781.56;;;8.50;76.87
1480;BME280;732;51.698;4.886;2023-04-22T06:56:39;100793.72;;;8.69;76.60
1480;BME280;732;51.698;4.886;2023-04-22T06:59:07;100792.66;;;8.87;76.74
1480;BME280;732;51.698;4.886;2023-04-22T07:01:40;100799.28;;;8.99;75.73
1480;BME280;732;51.698;4.886;2023-04-22T07:04:11;100792.28;;;8.98;75.64
1480;BME280;732;51.698;4.886;2023-04-22T07:06:42;100804.78;;;9.06;74.93
1480;BME280;732;51.698;4.886;2023-04-22T07:09:19;100801.06;;;9.15;74.98
1480;BME280;732;51.698;4.886;2023-04-22T07:12:06;100804.06;;;9.20;75.02
1480;BME280;732;51.698;4.886;2023-04-22T07:14:41;100811.56;;;9.25;74.66
1480;BME280;732;51.698;4.886;2023-04-22T07:17:09;100820.41;;;9.25;74.26
1480;BME280;732;51.698;4.886;2023-04-22T07:19:41;100825.91;;;9.40;74.61
1480;BME280;732;51.698;4.886;2023-04-22T07:22:15;100823.50;;;9.54;73.98
1480;BME280;732;51.698;4.886;2023-04-22T07:24:43;100794.91;;;9.46;71.55
1480;BME280;732;51.698;4.886;2023-04-22T07:27:11;100821.59;;;9.63;72.31
1480;BME280;732;51.698;4.886;2023-04-22T07:29:42;100805.88;;;9.83;73.46
1480;BME280;732;51.698;4.886;2023-04-22T07:32:19;100803.38;;;10.04;72.65
1480;BME280;732;51.698;4.886;2023-04-22T07:34:53;100790.88;;;9.97;71.74
1480;BME280;732;51.698;4.886;2023-04-22T07:37:23;100787.41;;;9.88;71.47
1480;BME280;732;51.698;4.886;2023-04-22T07:39:54;100800.94;;;9.95;71.64
1480;BME280;732;51.698;4.886;2023-04-22T07:42:29;100811.25;;;10.06;72.01
1480;BME280;732;51.698;4.886;2023-04-22T07:45:00;100812.97;;;10.22;71.81
1480;BME280;732;51.698;4.886;2023-04-22T07:47:28;100793.16;;;10.38;71.60
1480;BME280;732;51.698;4.886;2023-04-22T07:50:14;100779.50;;;10.63;69.67
1480;BME280;732;51.698;4.886;2023-04-22T07:52:45;100775.19;;;10.92;69.69
1480;BME280;732;51.698;4.886;2023-04-22T07:55:17;100772.91;;;11.25;70.22
1480;BME280;732;51.698;4.886;2023-04-22T08:00:36;100775.13;;;11.80;68.88
1480;BME280;732;51.698;4.886;2023-04-22T08:03:08;100748.72;;;11.83;68.43
1480;BME280;732;51.698;4.886;2023-04-22T08:05:45;100640.41;;;11.40;68.09
1480;BME280;732;51.698;4.886;2023-04-22T08:08:25;100670.81;;;11.68;66.92
1480;BME280;732;51.698;4.886;2023-04-22T08:11:37;100569.09;;;11.37;66.74
1480;BME280;732;51.698;4.886;2023-04-22T08:14:21;100614.00;;;11.72;66.05
1480;BME280;732;51.698;4.886;2023-04-22T08:17:09;100584.22;;;11.73;65.47
1480;BME280;732;51.698;4.886;2023-04-22T08:19:48;100691.91;;;12.63;63.82
1480;BME280;732;51.698;4.886;2023-04-22T08:22:26;100681.00;;;12.78;63.02
1480;BME280;732;51.698;4.886;2023-04-22T08:25:04;100724.47;;;13.30;62.04
1480;BME280;732;51.698;4.886;2023-04-22T08:28:00;100610.94;;;12.52;61.94
1480;BME280;732;51.698;4.886;2023-04-22T08:30:38;100675.31;;;13.02;61.20
1480;BME280;732;51.698;4.886;2023-04-22T08:33:11;100761.03;;;13.67;59.40
1480;BME280;732;51.698;4.886;2023-04-22T08:35:40;100709.81;;;13.60;59.58
1480;BME280;732;51.698;4.886;2023-04-22T08:38:13;100705.66;;;13.64;59.74
1480;BME280;732;51.698;4.886;2023-04-22T08:40:55;100671.88;;;13.88;60.16
1480;BME280;732;51.698;4.886;2023-04-22T08:43:26;100667.47;;;14.21;59.57
1480;BME280;732;51.698;4.886;2023-04-22T08:46:01;100628.50;;;13.83;55.98
1480;BME280;732;51.698;4.886;2023-04-22T08:48:32;100599.25;;;13.80;57.10
1480;BME280;732;51.698;4.886;2023-04-22T08:51:04;100721.38;;;14.48;58.84
1480;BME280;732;51.698;4.886;2023-04-22T08:53:37;100523.84;;;13.33;59.09
1480;BME280;732;51.698;4.886;2023-04-22T08:56:11;100661.00;;;14.29;58.00
1480;BME280;732;51.698;4.886;2023-04-22T08:58:41;100626.38;;;14.19;57.95
1480;BME280;732;51.698;4.886;2023-04-22T09:01:15;100449.00;;;13.42;58.12
1480;BME280;732;51.698;4.886;2023-04-22T09:03:47;100574.91;;;14.66;57.78
1480;BME280;732;51.698;4.886;2023-04-22T09:06:19;100503.66;;;14.67;57.12
1480;BME280;732;51.698;4.886;2023-04-22T09:08:49;100601.09;;;15.29;56.02
1480;BME280;732;51.698;4.886;2023-04-22T09:11:31;100513.97;;;15.27;58.24
1480;BME280;732;51.698;4.886;2023-04-22T09:14:09;100495.59;;;15.36;57.32
1480;BME280;732;51.698;4.886;2023-04-22T09:16:56;100639.50;;;16.26;56.45
1480;BME280;732;51.698;4.886;2023-04-22T09:19:42;100524.69;;;15.15;55.25
1480;BME280;732;51.698;4.886;2023-04-22T09:22:19;100509.16;;;14.79;53.23
1480;BME280;732;51.698;4.886;2023-04-22T09:24:50;100670.16;;;16.01;54.77
1480;BME280;732;51.698;4.886;2023-04-22T09:27:29;100521.09;;;15.21;56.40
1480;BME280;732;51.698;4.886;2023-04-22T09:30:10;100572.22;;;15.48;55.96
1480;BME280;732;51.698;4.886;2023-04-22T09:32:42;100650.03;;;16.15;54.71
1480;BME280;732;51.698;4.886;2023-04-22T09:35:21;100583.66;;;15.50;54.53
1480;BME280;732;51.698;4.886;2023-04-22T09:38:05;100535.91;;;15.37;54.62
1480;BME280;732;51.698;4.886;2023-04-22T09:41:07;100517.72;;;15.26;56.19
1480;BME280;732;51.698;4.886;2023-04-22T09:43:57;100689.28;;;16.80;55.95
1480;BME280;732;51.698;4.886;2023-04-22T09:46:49;100562.22;;;15.93;54.49
1480;BME280;732;51.698;4.886;2023-04-22T09:50:48;100586.72;;;16.16;53.33
1480;BME280;732;51.698;4.886;2023-04-22T09:54:00;100645.38;;;16.23;52.77
1480;BME280;732;51.698;4.886;2023-04-22T09:57:09;100628.38;;;15.97;53.22
1480;BME280;732;51.698;4.886;2023-04-22T10:00:24;100665.53;;;16.27;53.67
1480;BME280;732;51.698;4.886;2023-04-22T10:02:52;100711.22;;;16.53;54.43
1480;BME280;732;51.698;4.886;2023-04-22T10:05:23;100695.31;;;16.45;54.02
1480;BME280;732;51.698;4.886;2023-04-22T10:07:55;100716.75;;;16.65;53.66
1480;BME280;732;51.698;4.886;2023-04-22T10:10:23;100717.09;;;17.06;53.33
1480;BME280;732;51.698;4.886;2023-04-22T10:12:56;100723.06;;;16.59;49.77
1480;BME280;732;51.698;4.886;2023-04-22T10:15:31;100720.72;;;16.44;51.42
1480;BME280;732;51.698;4.886;2023-04-22T10:18:01;100706.03;;;16.33;51.68
1480;BME280;732;51.698;4.886;2023-04-22T10:20:30;100694.03;;;15.60;51.90
1480;BME280;732;51.698;4.886;2023-04-22T10:23:03;100683.63;;;15.57;53.17
1480;BME280;732;51.698;4.886;2023-04-22T10:25:31;100689.44;;;15.29;53.17
1480;BME280;732;51.698;4.886;2023-04-22T10:28:03;100724.25;;;15.50;53.96
1480;BME280;732;51.698;4.886;2023-04-22T10:30:35;100709.22;;;15.54;54.75
1480;BME280;732;51.698;4.886;2023-04-22T10:33:35;100698.41;;;15.22;52.42
1480;BME280;732;51.698;4.886;2023-04-22T10:36:14;100693.06;;;15.48;54.29
1480;BME280;732;51.698;4.886;2023-04-22T10:42:06;100704.78;;;15.92;54.51
1480;BME280;732;51.698;4.886;2023-04-22T10:44:47;100706.59;;;15.73;52.85
1480;BME280;732;51.698;4.886;2023-04-22T10:47:28;100668.84;;;15.28;53.14
1480;BME280;732;51.698;4.886;2023-04-22T10:50:19;100707.94;;;15.32;53.35
1480;BME280;732;51.698;4.886;2023-04-22T10:52:50;100707.72;;;14.95;54.35
1480;BME280;732;51.698;4.886;2023-04-22T10:55:19;100703.38;;;14.28;56.69
1480;BME280;732;51.698;4.886;2023-04-22T10:57:50;100702.56;;;14.07;58.54
1480;BME280;732;51.698;4.886;2023-04-22T11:00:30;100705.25;;;13.81;60.03
1480;BME280;732;51.698;4.886;2023-04-22T11:03:25;100696.72;;;13.37;61.66
1480;BME280;732;51.698;4.886;2023-04-22T11:06:16;100736.88;;;13.11;65.45
1480;BME280;732;51.698;4.886;2023-04-22T11:08:48;100754.91;;;12.76;66.79
1480;BME280;732;51.698;4.886;2023-04-22T11:11:17;100710.50;;;12.16;68.48
1480;BME280;732;51.698;4.886;2023-04-22T11:13:47;100745.59;;;12.08;68.73
1480;BME280;732;51.698;4.886;2023-04-22T11:16:21;100751.53;;;11.97;68.63
1480;BME280;732;51.698;4.886;2023-04-22T11:18:51;100723.03;;;11.37;70.34
1480;BME280;732;51.698;4.886;2023-04-22T11:21:20;100762.00;;;11.48;71.05
1480;BME280;732;51.698;4.886;2023-04-22T11:23:53;100753.56;;;11.15;72.06
1480;BME280;732;51.698;4.886;2023-04-22T11:26:32;100756.28;;;11.00;71.96
1480;BME280;732;51.698;4.886;2023-04-22T11:29:02;100764.00;;;10.88;72.55
1480;BME280;732;51.698;4.886;2023-04-22T11:31:30;100767.97;;;10.77;72.91
1480;BME280;732;51.698;4.886;2023-04-22T11:33:59;100757.59;;;10.89;72.64
1480;BME280;732;51.698;4.886;2023-04-22T11:36:28;100757.31;;;10.84;72.62
1480;BME280;732;51.698;4.886;2023-04-22T11:38:57;100763.41;;;10.93;73.12
1480;BME280;732;51.698;4.886;2023-04-22T11:41:26;100762.97;;;10.74;74.07
1480;BME280;732;51.698;4.886;2023-04-22T11:43:55;100780.19;;;10.80;73.95
1480;BME280;732;51.698;4.886;2023-04-22T11:46:28;100771.31;;;10.94;73.70
1480;BME280;732;51.698;4.886;2023-04-22T11:49:13;100761.88;;;10.68;73.84
1480;BME280;732;51.698;4.886;2023-04-22T11:51:57;100761.84;;;10.53;74.00
1480;BME280;732;51.698;4.886;2023-04-22T11:54:31;100742.13;;;10.16;74.23
1480;BME280;732;51.698;4.886;2023-04-22T11:57:04;100752.66;;;10.33;75.40
1480;BME280;732;51.698;4.886;2023-04-22T11:59:34;100711.50;;;9.96;75.57
1480;BME280;732;51.698;4.886;2023-04-22T12:02:04;100711.44;;;9.66;76.32
1480;BME280;732;51.698;4.886;2023-04-22T12:04:39;100703.50;;;9.72;76.32
1480;BME280;732;51.698;4.886;2023-04-22T12:07:08;100707.94;;;9.80;76.39
1480;BME280;732;51.698;4.886;2023-04-22T12:09:37;100732.38;;;10.00;75.64
1480;BME280;732;51.698;4.886;2023-04-22T12:12:06;100727.94;;;9.93;75.98
1480;BME280;732;51.698;4.886;2023-04-22T12:14:34;100710.38;;;9.90;76.13
1480;BME280;732;51.698;4.886;2023-04-22T12:17:03;100735.25;;;9.99;75.37
1480;BME280;732;51.698;4.886;2023-04-22T12:19:32;100732.25;;;10.17;75.41
1480;BME280;732;51.698;4.886;2023-04-22T12:22:01;100739.69;;;10.06;74.83
1480;BME280;732;51.698;4.886;2023-04-22T12:24:29;100731.31;;;9.86;74.87
1480;BME280;732;51.698;4.886;2023-04-22T12:26:58;100744.16;;;9.76;75.48
1480;BME280;732;51.698;4.886;2023-04-22T12:29:30;100722.44;;;9.16;75.78
1480;BME280;732;51.698;4.886;2023-04-22T12:31:59;100747.72;;;9.45;76.39
1480;BME280;732;51.698;4.886;2023-04-22T12:34:27;100745.72;;;9.47;76.03
1480;BME280;732;51.698;4.886;2023-04-22T12:36:55;100737.19;;;9.43;76.56
1480;BME280;732;51.698;4.886;2023-04-22T12:39:24;100745.16;;;9.52;76.16
1480;BME280;732;51.698;4.886;2023-04-22T12:41:53;100752.44;;;9.66;75.24
1480;BME280;732;51.698;4.886;2023-04-22T12:44:21;100760.47;;;9.89;75.50
1480;BME280;732;51.698;4.886;2023-04-22T12:46:51;100755.31;;;10.18;75.36
1480;BME280;732;51.698;4.886;2023-04-22T12:49:21;100746.22;;;10.27;74.59
1480;BME280;732;51.698;4.886;2023-04-22T12:51:49;100754.34;;;10.64;74.29
1480;BME280;732;51.698;4.886;2023-04-22T12:54:18;100766.22;;;10.69;73.96
1480;BME280;732;51.698;4.886;2023-04-22T12:56:48;100769.47;;;10.65;73.14
1480;BME280;732;51.698;4.886;2023-04-22T12:59:16;100767.69;;;10.57;72.74
1480;BME280;732;51.698;4.886;2023-04-22T13:01:44;100780.81;;;10.52;72.68
1480;BME280;732;51.698;4.886;2023-04-22T13:04:12;100780.22;;;10.27;72.89
1480;BME280;732;51.698;4.886;2023-04-22T13:06:41;100784.28;;;10.22;72.96
1480;BME280;732;51.698;4.886;2023-04-22T13:09:10;100787.78;;;10.23;72.89
1480;BME280;732;51.698;4.886;2023-04-22T13:11:38;100770.81;;;9.93;73.74
1480;BME280;732;51.698;4.886;2023-04-22T13:14:08;100779.75;;;10.23;73.15
1480;BME280;732;51.698;4.886;2023-04-22T13:16:36;100774.31;;;10.31;72.89
1480;BME280;732;51.698;4.886;2023-04-22T13:19:07;100772.63;;;10.30;73.34
1480;BME280;732;51.698;4.886;2023-04-22T13:21:35;100771.78;;;10.15;73.23
1480;BME280;732;51.698;4.886;2023-04-22T13:24:04;100761.91;;;10.30;73.19
1480;BME280;732;51.698;4.886;2023-04-22T13:26:32;100759.09;;;10.47;73.22
1480;BME280;732;51.698;4.886;2023-04-22T13:29:00;100764.88;;;10.50;72.78
1480;BME280;732;51.698;4.886;2023-04-22T13:31:30;100764.88;;;10.50;72.05
1480;BME280;732;51.698;4.886;2023-04-22T13:33:58;100744.00;;;10.31;72.10
1480;BME280;732;51.698;4.886;2023-04-22T13:36:26;100760.56;;;10.49;71.99
1480;BME280;732;51.698;4.886;2023-04-22T13:38:56;100761.09;;;10.45;72.30
1480;BME280;732;51.698;4.886;2023-04-22T13:41:24;100760.91;;;10.46;72.83
1480;BME280;732;51.698;4.886;2023-04-22T13:43:52;100761.94;;;10.45;72.77
1480;BME280;732;51.698;4.886;2023-04-22T13:46:22;100728.25;;;10.13;73.09
1480;BME280;732;51.698;4.886;2023-04-22T13:48:52;100754.06;;;10.29;72.94
1480;BME280;732;51.698;4.886;2023-04-22T13:51:21;100736.47;;;10.11;73.33
1480;BME280;732;51.698;4.886;2023-04-22T13:53:49;100756.56;;;10.30;73.62
1480;BME280;732;51.698;4.886;2023-04-22T13:56:17;100767.00;;;10.25;74.19
1480;BME280;732;51.698;4.886;2023-04-22T13:58:45;100765.97;;;10.11;74.70
1480;BME280;732;51.698;4.886;2023-04-22T14:01:13;100753.47;;;10.03;74.89
1480;BME280;732;51.698;4.886;2023-04-22T14:03:43;100742.06;;;9.86;74.78
1480;BME280;732;51.698;4.886;2023-04-22T14:06:13;100770.31;;;10.12;74.64
1480;BME280;732;51.698;4.886;2023-04-22T14:08:41;100768.09;;;10.16;74.41
1480;BME280;732;51.698;4.886;2023-04-22T14:11:10;100774.00;;;10.11;74.48
1480;BME280;732;51.698;4.886;2023-04-22T14:13:39;100747.16;;;9.96;74.36